Time;durP1;ratioP1;P1;durP2;ratioP2;P2;SDS_P1;SDS_P2;PMS_P1;PMS_P2;Temp;Humidity;BMP_temperature;BMP_pressure;BME280_temperature;BME280_humidity;BME280_pressure;Samples;Min_cycle;Max_cycle;Signal;HPM_P1;HPM_P2
2022/04/09 00:01:13;;;;;;;2.90;0.77;;;;;;;;;;5007653;28;20111;-77
2022/04/09 00:03:39;;;;;;;3.35;1.50;;;;;;;;;;5010076;28;20038;-77
2022/04/09 00:06:06;;;;;;;1.02;0.70;;;;;;;;;;5009046;28;20505;-77
2022/04/09 00:08:33;;;;;;;0.90;0.60;;;;;;;;;;5007748;28;20078;-76
2022/04/09 00:11:00;;;;;;;3.00;0.70;;;;;;;;;;5009542;28;20084;-76
2022/04/09 00:13:27;;;;;;;1.42;0.68;;;;;;;;;;5007006;28;20066;-76
2022/04/09 00:15:54;;;;;;;1.15;0.60;;;;;;;;;;5007208;28;20076;-77
2022/04/09 00:18:21;;;;;;;1.05;0.50;;;;;;;;;;5009322;28;20085;-77
2022/04/09 00:20:49;;;;;;;1.90;0.57;;;;;;;;;;5007695;28;20061;-77
2022/04/09 00:23:16;;;;;;;3.05;0.60;;;;;;;;;;5009997;28;20058;-76
2022/04/09 00:25:42;;;;;;;0.57;0.28;;;;;;;;;;5006802;28;20066;-77
2022/04/09 00:28:12;;;;;;;1.10;0.20;;;;;;;;;;5009811;28;20077;-77
2022/04/09 00:30:39;;;;;;;0.20;0.20;;;;;;;;;;5016462;28;20077;-77
2022/04/09 00:33:06;;;;;;;0.32;0.30;;;;;;;;;;5011479;28;20658;-76
2022/04/09 00:35:32;;;;;;;0.43;0.43;;;;;;;;;;5015305;28;20049;-77
2022/04/09 00:37:59;;;;;;;0.65;0.28;;;;;;;;;;5012617;28;20130;-77
2022/04/09 00:40:27;;;;;;;0.73;0.30;;;;;;;;;;5013614;28;20135;-77
2022/04/09 00:42:53;;;;;;;0.35;0.22;;;;;;;;;;5011108;28;20065;-77
2022/04/09 00:45:21;;;;;;;0.30;0.30;;;;;;;;;;5010211;28;20805;-76
2022/04/09 00:47:48;;;;;;;0.10;0.10;;;;;;;;;;5011952;28;20046;-76
2022/04/09 00:50:17;;;;;;;0.47;0.47;;;;;;;;;;5010760;28;20081;-76
2022/04/09 00:52:51;;;;;;;0.13;0.13;;;;;;;;;;5007705;28;20041;-77
2022/04/09 00:55:20;;;;;;;0.43;0.20;;;;;;;;;;5004035;28;20433;-76
2022/04/09 00:57:47;;;;;;;0.20;0.15;;;;;;;;;;5012560;28;20121;-76
2022/04/09 01:00:15;;;;;;;0.63;0.20;;;;;;;;;;5010894;28;20061;-76
2022/04/09 01:02:44;;;;;;;1.70;0.30;;;;;;;;;;5011071;28;20486;-76
2022/04/09 01:05:11;;;;;;;0.17;0.10;;;;;;;;;;5005974;28;20080;-76
2022/04/09 01:07:38;;;;;;;1.48;0.08;;;;;;;;;;5011058;28;20137;-76
2022/04/09 01:10:09;;;;;;;0.10;0.10;;;;;;;;;;5006802;28;20073;-76
2022/04/09 01:12:37;;;;;;;0.10;0.10;;;;;;;;;;5010068;28;20499;-76
2022/04/09 01:15:05;;;;;;;0.73;0.20;;;;;;;;;;5007932;28;20124;-76
2022/04/09 01:17:31;;;;;;;0.35;0.10;;;;;;;;;;5011303;28;20092;-76
2022/04/09 01:19:59;;;;;;;0.55;0.10;;;;;;;;;;5012648;28;20120;-76
2022/04/09 01:22:27;;;;;;;0.03;0.03;;;;;;;;;;5006232;28;20128;-76
2022/04/09 01:24:54;;;;;;;0.00;0.00;;;;;;;;;;5011989;28;20080;-76
2022/04/09 01:27:20;;;;;;;0.13;0.05;;;;;;;;;;5010223;28;20066;-76
2022/04/09 01:29:47;;;;;;;0.75;0.40;;;;;;;;;;5011419;28;20070;-76
2022/04/09 01:32:13;;;;;;;0.90;0.20;;;;;;;;;;5009581;28;20695;-76
2022/04/09 01:34:41;;;;;;;0.20;0.20;;;;;;;;;;5011055;28;20034;-76
2022/04/09 01:37:07;;;;;;;0.10;0.10;;;;;;;;;;5008885;28;20466;-77
2022/04/09 01:39:35;;;;;;;0.10;0.10;;;;;;;;;;5013132;28;20074;-76
2022/04/09 01:42:02;;;;;;;0.30;0.10;;;;;;;;;;5010186;28;20552;-76
2022/04/09 01:44:29;;;;;;;0.13;0.13;;;;;;;;;;5010275;28;20112;-76
2022/04/09 01:46:55;;;;;;;0.52;0.20;;;;;;;;;;5009043;28;20072;-76
2022/04/09 01:49:22;;;;;;;0.22;0.20;;;;;;;;;;5011711;28;20066;-76
2022/04/09 01:51:50;;;;;;;0.50;0.08;;;;;;;;;;5009463;28;20073;-76
2022/04/09 01:54:16;;;;;;;0.10;0.10;;;;;;;;;;5008206;28;20074;-76
2022/04/09 01:56:44;;;;;;;0.10;0.10;;;;;;;;;;5010513;28;20045;-76
2022/04/09 01:59:11;;;;;;;0.32;0.10;;;;;;;;;;5011926;28;20115;-76
2022/04/09 02:01:37;;;;;;;0.15;0.15;;;;;;;;;;5010881;28;20061;-77
2022/04/09 02:04:04;;;;;;;0.40;0.20;;;;;;;;;;5016420;28;20037;-77
2022/04/09 02:06:32;;;;;;;0.10;0.10;;;;;;;;;;5009928;28;20074;-76
2022/04/09 02:08:59;;;;;;;0.30;0.20;;;;;;;;;;5008273;28;20041;-77
2022/04/09 02:11:26;;;;;;;0.20;0.20;;;;;;;;;;5012289;28;20115;-76
2022/04/09 02:13:54;;;;;;;0.17;0.17;;;;;;;;;;5003715;28;20072;-77
2022/04/09 02:16:21;;;;;;;0.10;0.10;;;;;;;;;;5008495;28;20046;-76
2022/04/09 02:18:47;;;;;;;0.20;0.20;;;;;;;;;;5007146;28;20069;-77
2022/04/09 02:21:14;;;;;;;0.43;0.20;;;;;;;;;;5011848;28;20652;-77
2022/04/09 02:23:40;;;;;;;0.40;0.40;;;;;;;;;;5014702;28;20042;-77
2022/04/09 02:26:08;;;;;;;0.70;0.30;;;;;;;;;;5009957;28;20133;-76
2022/04/09 02:28:35;;;;;;;0.85;0.35;;;;;;;;;;5009751;28;20470;-76
2022/04/09 02:31:03;;;;;;;0.73;0.40;;;;;;;;;;5009028;28;20158;-76
2022/04/09 02:33:29;;;;;;;0.38;0.38;;;;;;;;;;5008698;28;20061;-76
2022/04/09 02:35:56;;;;;;;0.70;0.52;;;;;;;;;;5008771;28;20077;-76
2022/04/09 02:38:22;;;;;;;1.63;0.55;;;;;;;;;;5004322;28;20307;-76
2022/04/09 02:40:49;;;;;;;0.82;0.40;;;;;;;;;;5007628;28;20125;-76
2022/04/09 02:43:15;;;;;;;1.55;0.70;;;;;;;;;;5007530;28;20069;-76
2022/04/09 02:45:42;;;;;;;0.98;0.77;;;;;;;;;;5007247;28;20062;-76
2022/04/09 02:48:10;;;;;;;1.40;0.70;;;;;;;;;;5007915;28;20052;-76
2022/04/09 02:50:37;;;;;;;1.58;0.73;;;;;;;;;;5009506;28;20034;-76
2022/04/09 02:53:03;;;;;;;1.00;0.70;;;;;;;;;;5008141;28;20534;-76
2022/04/09 02:55:30;;;;;;;1.17;1.00;;;;;;;;;;5010501;28;20049;-76
2022/04/09 02:57:57;;;;;;;1.15;0.73;;;;;;;;;;5007806;28;20065;-76
2022/04/09 03:00:23;;;;;;;0.77;0.60;;;;;;;;;;5006776;28;20549;-76
2022/04/09 03:02:50;;;;;;;1.17;0.73;;;;;;;;;;5009345;28;20050;-76
2022/04/09 03:05:19;;;;;;;1.25;0.80;;;;;;;;;;5013906;28;20081;-77
2022/04/09 03:07:45;;;;;;;0.98;0.50;;;;;;;;;;5008172;28;20419;-77
2022/04/09 03:10:12;;;;;;;1.20;0.60;;;;;;;;;;5001151;28;20045;-76
2022/04/09 03:12:43;;;;;;;0.95;0.60;;;;;;;;;;5005990;28;20121;-76
2022/04/09 03:15:10;;;;;;;1.50;1.00;;;;;;;;;;4998579;28;20077;-76
2022/04/09 03:17:36;;;;;;;1.02;0.68;;;;;;;;;;5008316;28;20128;-76
2022/04/09 03:20:03;;;;;;;1.42;0.93;;;;;;;;;;5009607;28;20129;-76
2022/04/09 03:22:31;;;;;;;1.35;0.90;;;;;;;;;;5008961;28;20080;-76
2022/04/09 03:24:58;;;;;;;1.17;0.68;;;;;;;;;;5009318;28;20073;-76
2022/04/09 03:27:25;;;;;;;1.30;0.80;;;;;;;;;;5009138;28;20074;-76
2022/04/09 03:29:52;;;;;;;1.63;1.00;;;;;;;;;;5009827;28;20045;-77
2022/04/09 03:32:18;;;;;;;1.23;0.88;;;;;;;;;;5007473;28;20696;-77
2022/04/09 03:34:45;;;;;;;0.98;0.88;;;;;;;;;;5010206;28;20065;-76
2022/04/09 03:37:12;;;;;;;1.40;0.90;;;;;;;;;;5007478;28;20506;-77
2022/04/09 03:39:41;;;;;;;1.27;0.98;;;;;;;;;;5008573;28;20104;-77
2022/04/09 03:42:08;;;;;;;1.58;1.08;;;;;;;;;;5006059;28;20052;-76
2022/04/09 03:44:35;;;;;;;2.03;0.98;;;;;;;;;;5010172;28;20053;-77
2022/04/09 03:47:02;;;;;;;1.75;1.10;;;;;;;;;;5009214;28;20042;-77
2022/04/09 03:49:29;;;;;;;3.35;1.45;;;;;;;;;;5013969;28;20045;-77
2022/04/09 03:51:56;;;;;;;2.88;1.13;;;;;;;;;;5010102;28;20065;-77
2022/04/09 03:54:23;;;;;;;2.13;1.20;;;;;;;;;;5009738;28;20080;-78
2022/04/09 03:56:50;;;;;;;2.28;1.17;;;;;;;;;;5013285;28;20038;-77
2022/04/09 03:59:17;;;;;;;4.65;1.55;;;;;;;;;;5011711;28;20080;-77
2022/04/09 04:01:47;;;;;;;2.28;1.35;;;;;;;;;;5012136;28;20097;-77
2022/04/09 04:04:14;;;;;;;3.60;1.70;;;;;;;;;;5011991;28;20033;-77
2022/04/09 04:06:40;;;;;;;3.88;2.05;;;;;;;;;;5010633;28;20053;-77
2022/04/09 04:09:07;;;;;;;3.38;1.70;;;;;;;;;;5010173;28;20046;-77
2022/04/09 04:11:34;;;;;;;2.78;1.52;;;;;;;;;;5011925;28;20069;-77
2022/04/09 04:14:03;;;;;;;3.63;1.92;;;;;;;;;;5011422;28;20077;-77
2022/04/09 04:16:30;;;;;;;5.38;2.13;;;;;;;;;;5010432;28;20050;-77
2022/04/09 04:18:56;;;;;;;5.38;2.30;;;;;;;;;;5011563;28;20100;-77
2022/04/09 04:21:23;;;;;;;4.03;2.15;;;;;;;;;;5007948;28;20101;-77
2022/04/09 04:23:49;;;;;;;4.85;2.50;;;;;;;;;;5011299;28;20136;-77
2022/04/09 04:26:16;;;;;;;3.67;2.38;;;;;;;;;;5010409;28;20367;-77
2022/04/09 04:28:42;;;;;;;4.07;2.00;;;;;;;;;;5012143;28;20568;-77
2022/04/09 04:31:10;;;;;;;4.18;2.17;;;;;;;;;;5006524;28;20042;-77
2022/04/09 04:33:38;;;;;;;3.40;1.77;;;;;;;;;;5008676;28;20382;-77
2022/04/09 04:36:05;;;;;;;4.18;2.30;;;;;;;;;;5008451;28;20038;-77
2022/04/09 04:38:31;;;;;;;4.32;2.60;;;;;;;;;;5008602;28;20088;-77
2022/04/09 04:40:59;;;;;;;5.70;2.60;;;;;;;;;;5012946;28;20556;-77
2022/04/09 04:43:25;;;;;;;3.83;2.10;;;;;;;;;;5009265;28;20041;-77
2022/04/09 04:45:52;;;;;;;6.70;2.80;;;;;;;;;;5009647;28;20143;-77
2022/04/09 04:48:21;;;;;;;4.13;2.45;;;;;;;;;;5011064;28;20482;-77
2022/04/09 04:50:47;;;;;;;5.93;2.95;;;;;;;;;;5006904;28;20069;-76
2022/04/09 04:53:14;;;;;;;4.60;2.20;;;;;;;;;;5007308;28;20131;-76
2022/04/09 04:55:41;;;;;;;5.43;2.88;;;;;;;;;;5008502;28;20069;-76
2022/04/09 04:58:15;;;;;;;4.65;2.80;;;;;;;;;;5006300;28;20540;-77
2022/04/09 05:00:41;;;;;;;5.32;2.90;;;;;;;;;;5008234;28;20502;-78
2022/04/09 05:03:08;;;;;;;6.07;3.08;;;;;;;;;;5007163;28;20069;-78
2022/04/09 05:05:36;;;;;;;6.40;3.65;;;;;;;;;;5006608;28;20537;-77
2022/04/09 05:08:02;;;;;;;5.90;3.50;;;;;;;;;;5007900;28;20145;-78
2022/04/09 05:10:32;;;;;;;7.40;3.47;;;;;;;;;;5009346;28;20069;-77
2022/04/09 05:12:59;;;;;;;6.82;3.92;;;;;;;;;;5010424;28;20038;-77
2022/04/09 05:15:26;;;;;;;7.45;4.03;;;;;;;;;;5013183;28;20050;-78
2022/04/09 05:17:53;;;;;;;7.22;4.35;;;;;;;;;;5014525;28;20070;-77
2022/04/09 05:20:19;;;;;;;6.90;4.22;;;;;;;;;;5011449;28;20445;-77
2022/04/09 05:22:47;;;;;;;6.18;4.18;;;;;;;;;;5013364;28;20046;-77
2022/04/09 05:25:17;;;;;;;7.53;4.45;;;;;;;;;;5016658;28;20046;-77
2022/04/09 05:27:44;;;;;;;7.28;4.60;;;;;;;;;;5013854;28;20137;-77
2022/04/09 05:30:11;;;;;;;8.85;5.30;;;;;;;;;;5015294;28;20120;-77
2022/04/09 05:32:39;;;;;;;9.82;5.28;;;;;;;;;;5011628;28;20046;-76
2022/04/09 05:35:06;;;;;;;7.00;4.50;;;;;;;;;;5010786;28;20050;-76
2022/04/09 05:37:33;;;;;;;7.22;4.13;;;;;;;;;;5013546;28;20069;-77
2022/04/09 05:40:02;;;;;;;7.75;5.18;;;;;;;;;;5019235;28;20076;-77
2022/04/09 05:42:29;;;;;;;8.38;4.85;;;;;;;;;;5014238;28;20037;-77
2022/04/09 05:44:55;;;;;;;7.93;4.53;;;;;;;;;;5008400;28;20069;-77
2022/04/09 05:47:22;;;;;;;7.82;4.15;;;;;;;;;;5008910;28;20053;-77
2022/04/09 05:49:48;;;;;;;7.82;4.47;;;;;;;;;;5007447;28;20073;-76
2022/04/09 05:52:15;;;;;;;6.40;4.15;;;;;;;;;;5007632;28;20119;-77
2022/04/09 05:54:42;;;;;;;7.93;4.00;;;;;;;;;;5007730;28;20541;-77
2022/04/09 05:57:17;;;;;;;8.25;4.70;;;;;;;;;;5008385;28;20510;-77
2022/04/09 05:59:44;;;;;;;7.85;4.47;;;;;;;;;;5004581;28;20084;-77
2022/04/09 06:02:10;;;;;;;7.55;4.55;;;;;;;;;;5008743;28;20073;-77
2022/04/09 06:04:37;;;;;;;8.40;4.82;;;;;;;;;;5008125;28;20042;-77
2022/04/09 06:07:04;;;;;;;9.57;5.30;;;;;;;;;;5009446;28;20069;-77
2022/04/09 06:09:30;;;;;;;10.60;4.97;;;;;;;;;;5010669;28;20073;-77
2022/04/09 06:11:57;;;;;;;10.30;4.80;;;;;;;;;;5010226;28;20069;-77
2022/04/09 06:14:25;;;;;;;9.35;4.85;;;;;;;;;;5009622;28;20080;-77
2022/04/09 06:16:52;;;;;;;12.38;6.00;;;;;;;;;;5007458;28;20492;-77
2022/04/09 06:19:18;;;;;;;9.68;5.75;;;;;;;;;;5008677;28;20085;-77
2022/04/09 06:21:45;;;;;;;13.00;7.63;;;;;;;;;;5004805;28;20070;-77
2022/04/09 06:24:11;;;;;;;10.25;5.45;;;;;;;;;;5008716;28;20129;-77
2022/04/09 06:26:38;;;;;;;14.52;6.25;;;;;;;;;;5009099;28;20045;-77
2022/04/09 06:29:05;;;;;;;10.07;5.72;;;;;;;;;;5009296;28;20034;-77
2022/04/09 06:31:33;;;;;;;11.00;6.03;;;;;;;;;;5009956;28;20049;-77
2022/04/09 06:33:59;;;;;;;10.75;6.43;;;;;;;;;;5010428;28;20126;-77
2022/04/09 06:36:26;;;;;;;10.73;7.45;;;;;;;;;;5010840;28;20077;-78
2022/04/09 06:38:53;;;;;;;11.68;6.40;;;;;;;;;;5009028;28;20045;-78
2022/04/09 06:41:19;;;;;;;12.20;5.88;;;;;;;;;;5009642;28;20060;-78
2022/04/09 06:43:46;;;;;;;12.68;7.38;;;;;;;;;;5009252;28;20076;-77
2022/04/09 06:46:13;;;;;;;14.80;6.65;;;;;;;;;;5008402;28;20103;-77
2022/04/09 06:48:41;;;;;;;11.20;6.80;;;;;;;;;;5011117;28;20080;-77
2022/04/09 06:51:08;;;;;;;12.60;8.07;;;;;;;;;;5008221;28;20155;-76
2022/04/09 06:53:34;;;;;;;13.73;7.53;;;;;;;;;;5009049;28;20120;-76
2022/04/09 06:56:01;;;;;;;12.52;7.53;;;;;;;;;;5009916;28;20175;-77
2022/04/09 06:58:27;;;;;;;15.65;8.52;;;;;;;;;;5006578;28;20083;-77
2022/04/09 07:00:54;;;;;;;13.02;7.60;;;;;;;;;;5006968;28;20108;-76
2022/04/09 07:03:20;;;;;;;13.20;7.53;;;;;;;;;;5009185;28;20426;-76
2022/04/09 07:05:48;;;;;;;12.02;7.95;;;;;;;;;;5007768;28;20081;-76
2022/04/09 07:08:15;;;;;;;12.60;7.43;;;;;;;;;;5011164;28;20463;-76
2022/04/09 07:10:41;;;;;;;12.52;7.60;;;;;;;;;;5010599;28;20073;-76
2022/04/09 07:13:08;;;;;;;14.15;7.32;;;;;;;;;;5011280;28;20069;-76
2022/04/09 07:15:35;;;;;;;14.68;7.57;;;;;;;;;;5005528;28;20451;-77
2022/04/09 07:18:02;;;;;;;13.85;7.32;;;;;;;;;;5008465;28;20155;-78
2022/04/09 07:20:29;;;;;;;14.07;6.00;;;;;;;;;;5009503;28;20065;-77
2022/04/09 07:22:57;;;;;;;10.85;6.60;;;;;;;;;;5014326;28;20046;-77
2022/04/09 07:25:23;;;;;;;13.90;6.70;;;;;;;;;;5002633;28;20107;-77
2022/04/09 07:27:50;;;;;;;11.80;6.32;;;;;;;;;;5010717;28;20081;-77
2022/04/09 07:30:18;;;;;;;8.98;5.55;;;;;;;;;;5008473;28;20795;-77
2022/04/09 07:32:45;;;;;;;10.27;6.28;;;;;;;;;;5014256;28;20119;-77
2022/04/09 07:35:12;;;;;;;11.73;6.40;;;;;;;;;;5010255;28;20078;-78
2022/04/09 07:37:43;;;;;;;8.63;5.40;;;;;;;;;;5010771;28;20046;-78
2022/04/09 07:40:12;;;;;;;9.55;5.78;;;;;;;;;;5010219;28;20042;-78
2022/04/09 07:42:40;;;;;;;8.85;5.60;;;;;;;;;;5009043;28;20070;-77
2022/04/09 07:45:07;;;;;;;9.38;5.78;;;;;;;;;;5005935;28;20084;-78
2022/04/09 07:47:34;;;;;;;7.10;5.07;;;;;;;;;;5008382;28;20042;-77
2022/04/09 07:50:02;;;;;;;12.23;5.95;;;;;;;;;;5009603;28;20073;-77
2022/04/09 07:52:29;;;;;;;6.75;4.65;;;;;;;;;;5007188;28;20033;-76
2022/04/09 07:54:57;;;;;;;6.53;4.38;;;;;;;;;;5007728;28;20046;-76
2022/04/09 07:57:25;;;;;;;10.63;6.13;;;;;;;;;;5009697;28;20545;-77
2022/04/09 07:59:53;;;;;;;9.38;5.43;;;;;;;;;;5008842;28;20065;-77
2022/04/09 08:02:20;;;;;;;7.13;4.70;;;;;;;;;;5006923;28;20746;-76
2022/04/09 08:04:46;;;;;;;13.65;4.85;;;;;;;;;;5011477;28;20046;-76
2022/04/09 08:07:13;;;;;;;10.77;5.07;;;;;;;;;;5007461;28;20085;-76
2022/04/09 08:09:39;;;;;;;7.25;4.75;;;;;;;;;;5009458;28;20124;-76
2022/04/09 08:12:06;;;;;;;8.68;4.55;;;;;;;;;;5007796;28;20084;-76
2022/04/09 08:14:34;;;;;;;9.20;4.57;;;;;;;;;;4997709;28;20576;-76
2022/04/09 08:17:01;;;;;;;6.32;4.43;;;;;;;;;;5005554;28;20082;-76
2022/04/09 08:19:27;;;;;;;6.47;4.05;;;;;;;;;;5007332;28;20070;-76
2022/04/09 08:21:55;;;;;;;7.47;4.60;;;;;;;;;;5007807;28;20042;-76
2022/04/09 08:24:21;;;;;;;6.47;4.53;;;;;;;;;;5008329;28;20129;-76
2022/04/09 08:26:48;;;;;;;5.93;4.43;;;;;;;;;;5008332;28;20049;-76
2022/04/09 08:29:19;;;;;;;6.78;4.15;;;;;;;;;;5002791;28;20462;-76
2022/04/09 08:31:48;;;;;;;6.00;3.67;;;;;;;;;;5007791;28;20100;-76
2022/04/09 08:34:14;;;;;;;5.93;3.65;;;;;;;;;;5008114;28;20065;-76
2022/04/09 08:36:41;;;;;;;7.38;3.38;;;;;;;;;;5007574;28;20694;-76
2022/04/09 08:39:07;;;;;;;5.10;3.38;;;;;;;;;;5007642;28;20073;-76
2022/04/09 08:41:36;;;;;;;6.72;3.22;;;;;;;;;;5007543;28;20163;-76
2022/04/09 08:44:03;;;;;;;5.57;3.78;;;;;;;;;;5007943;28;20140;-76
2022/04/09 08:46:29;;;;;;;5.05;2.88;;;;;;;;;;5007069;28;20065;-76
2022/04/09 08:48:59;;;;;;;5.93;3.30;;;;;;;;;;5006881;28;20088;-76
2022/04/09 08:51:26;;;;;;;5.72;3.55;;;;;;;;;;5008728;28;20046;-76
2022/04/09 08:53:53;;;;;;;5.82;3.15;;;;;;;;;;5007478;28;20042;-76
2022/04/09 08:56:19;;;;;;;6.35;3.35;;;;;;;;;;5009851;28;20038;-77
2022/04/09 08:58:46;;;;;;;6.35;3.08;;;;;;;;;;5010685;28;20092;-76
2022/04/09 09:01:13;;;;;;;6.20;3.10;;;;;;;;;;5013037;28;20072;-77
2022/04/09 09:03:39;;;;;;;6.25;3.40;;;;;;;;;;5016526;28;20049;-77
2022/04/09 09:06:25;;;;;;;4.78;2.55;;;;;;;;;;5014158;28;20045;-77
2022/04/09 09:08:52;;;;;;;4.57;2.50;;;;;;;;;;5009229;28;20514;-77
2022/04/09 09:11:22;;;;;;;4.32;2.80;;;;;;;;;;5011432;28;22089;-77
2022/04/09 09:13:50;;;;;;;4.70;2.70;;;;;;;;;;5011010;28;20073;-77
2022/04/09 09:16:25;;;;;;;7.63;3.47;;;;;;;;;;5007747;28;20441;-77
2022/04/09 09:18:53;;;;;;;4.63;2.57;;;;;;;;;;5010796;28;20673;-77
2022/04/09 09:21:23;;;;;;;4.55;2.83;;;;;;;;;;5010080;28;20073;-77
2022/04/09 09:23:50;;;;;;;4.68;2.50;;;;;;;;;;5009197;28;20401;-77
2022/04/09 09:26:20;;;;;;;6.85;2.47;;;;;;;;;;5010396;28;20425;-76
2022/04/09 09:28:54;;;;;;;6.15;2.83;;;;;;;;;;5009227;28;20121;-76
2022/04/09 09:31:21;;;;;;;4.85;2.40;;;;;;;;;;5009791;28;20079;-77
2022/04/09 09:33:49;;;;;;;6.50;2.60;;;;;;;;;;5008588;28;20041;-76
2022/04/09 09:36:15;;;;;;;3.85;2.05;;;;;;;;;;5008627;28;20746;-77
2022/04/09 09:38:45;;;;;;;2.88;1.95;;;;;;;;;;5008679;28;20077;-77
2022/04/09 09:41:22;;;;;;;3.33;1.92;;;;;;;;;;5010453;28;20042;-77
2022/04/09 09:44:01;;;;;;;2.60;1.73;;;;;;;;;;5011308;28;20462;-76
2022/04/09 09:46:28;;;;;;;3.55;2.08;;;;;;;;;;5009188;28;20076;-75
2022/04/09 09:48:55;;;;;;;4.60;2.15;;;;;;;;;;5009826;28;20491;-76
2022/04/09 09:51:23;;;;;;;6.75;2.45;;;;;;;;;;5009410;28;20092;-76
2022/04/09 09:53:51;;;;;;;6.75;2.95;;;;;;;;;;5007896;28;20168;-75
2022/04/09 09:56:35;;;;;;;5.30;2.78;;;;;;;;;;5008328;28;20132;-75
2022/04/09 09:59:01;;;;;;;6.88;2.72;;;;;;;;;;5008060;28;20148;-75
2022/04/09 10:01:28;;;;;;;7.38;3.28;;;;;;;;;;5007847;28;20088;-75
2022/04/09 10:03:55;;;;;;;8.25;2.35;;;;;;;;;;5009299;28;20475;-75
2022/04/09 10:06:22;;;;;;;6.60;2.65;;;;;;;;;;5007347;28;20066;-75
2022/04/09 10:08:48;;;;;;;5.30;2.15;;;;;;;;;;5007245;28;20073;-75
2022/04/09 10:11:17;;;;;;;4.82;2.42;;;;;;;;;;5008898;28;20129;-75
2022/04/09 10:13:47;;;;;;;7.65;2.80;;;;;;;;;;5010241;28;20065;-75
2022/04/09 10:16:20;;;;;;;6.35;2.95;;;;;;;;;;5008736;28;20046;-75
2022/04/09 10:18:48;;;;;;;4.53;2.50;;;;;;;;;;5007894;28;20694;-75
2022/04/09 10:21:16;;;;;;;4.88;2.00;;;;;;;;;;5011149;28;20103;-75
2022/04/09 10:23:43;;;;;;;3.90;2.20;;;;;;;;;;5009542;28;20066;-75
2022/04/09 10:26:10;;;;;;;2.75;1.65;;;;;;;;;;5008528;28;20517;-75
2022/04/09 10:28:40;;;;;;;3.60;2.45;;;;;;;;;;5003732;28;20393;-75
2022/04/09 10:31:35;;;;;;;4.18;2.05;;;;;;;;;;4994309;28;20062;-75
2022/04/09 10:34:03;;;;;;;8.45;2.97;;;;;;;;;;5003044;28;20487;-75
2022/04/09 10:37:03;;;;;;;5.22;1.92;;;;;;;;;;4999425;28;20111;-75
2022/04/09 10:39:38;;;;;;;10.18;2.08;;;;;;;;;;5003997;28;20290;-75
2022/04/09 10:42:05;;;;;;;4.68;2.05;;;;;;;;;;5005362;28;20629;-76
2022/04/09 10:44:52;;;;;;;4.82;1.80;;;;;;;;;;4998866;28;20058;-76
2022/04/09 10:47:18;;;;;;;;;;;;;;;;;;4998889;28;20173;-76
2022/04/09 10:50:11;;;;;;;4.68;1.70;;;;;;;;;;4998379;28;19948;-76
2022/04/09 10:52:38;;;;;;;5.78;1.98;;;;;;;;;;5002413;28;20682;-76
2022/04/09 10:55:06;;;;;;;5.30;2.90;;;;;;;;;;5007710;28;20137;-76
2022/04/09 10:57:42;;;;;;;3.58;2.00;;;;;;;;;;5011506;28;20371;-76
2022/04/09 11:00:30;;;;;;;4.45;1.90;;;;;;;;;;5010569;28;20135;-76
2022/04/09 11:03:13;;;;;;;4.55;1.55;;;;;;;;;;5005837;28;20474;-76
2022/04/09 11:05:41;;;;;;;5.70;1.75;;;;;;;;;;5007122;28;20072;-75
2022/04/09 11:08:08;;;;;;;4.18;1.85;;;;;;;;;;5010363;28;20179;-75
2022/04/09 11:10:35;;;;;;;4.72;1.92;;;;;;;;;;5008593;28;20493;-75
2022/04/09 11:13:10;;;;;;;4.72;1.45;;;;;;;;;;5008292;28;20053;-75
2022/04/09 11:15:45;;;;;;;5.00;1.58;;;;;;;;;;5006869;28;20053;-76
2022/04/09 11:18:19;;;;;;;6.90;1.75;;;;;;;;;;5008337;28;20297;-76
2022/04/09 11:20:46;;;;;;;5.05;1.70;;;;;;;;;;5009319;28;20120;-76
2022/04/09 11:23:14;;;;;;;4.72;1.60;;;;;;;;;;5008571;28;20143;-76
2022/04/09 11:25:43;;;;;;;5.05;1.98;;;;;;;;;;5007657;28;20708;-75
2022/04/09 11:28:13;;;;;;;6.60;1.85;;;;;;;;;;5008363;28;20108;-75
2022/04/09 11:30:52;;;;;;;4.68;1.55;;;;;;;;;;5006161;28;20081;-76
2022/04/09 11:33:18;;;;;;;4.85;1.40;;;;;;;;;;5006771;28;20495;-75
2022/04/09 11:35:45;;;;;;;4.43;1.77;;;;;;;;;;5007382;28;20141;-75
2022/04/09 11:38:12;;;;;;;3.78;1.85;;;;;;;;;;5007294;28;20053;-76
2022/04/09 11:40:46;;;;;;;4.50;1.50;;;;;;;;;;5006379;28;20757;-75
2022/04/09 11:43:13;;;;;;;7.03;1.77;;;;;;;;;;5007943;28;20041;-75
2022/04/09 11:45:41;;;;;;;5.75;1.75;;;;;;;;;;5007291;28;20600;-75
2022/04/09 11:48:14;;;;;;;7.35;1.88;;;;;;;;;;5005964;28;20149;-76
2022/04/09 11:50:41;;;;;;;5.70;1.80;;;;;;;;;;4999627;28;20081;-75
2022/04/09 11:53:10;;;;;;;3.60;1.67;;;;;;;;;;5007037;28;20135;-75
2022/04/09 11:55:37;;;;;;;5.38;1.50;;;;;;;;;;5006306;28;20065;-76
2022/04/09 11:58:04;;;;;;;7.10;1.70;;;;;;;;;;5006887;28;20092;-76
2022/04/09 12:00:30;;;;;;;4.47;1.42;;;;;;;;;;5006486;28;20145;-76
2022/04/09 12:03:02;;;;;;;4.47;1.67;;;;;;;;;;5005511;28;20037;-75
2022/04/09 12:05:28;;;;;;;6.78;1.80;;;;;;;;;;5004611;28;20115;-76
2022/04/09 12:07:55;;;;;;;3.88;1.60;;;;;;;;;;5007374;28;20731;-75
2022/04/09 12:10:25;;;;;;;6.32;1.83;;;;;;;;;;5008419;28;20048;-76
2022/04/09 12:13:00;;;;;;;4.28;1.60;;;;;;;;;;5007879;28;20118;-75
2022/04/09 12:15:30;;;;;;;4.65;1.55;;;;;;;;;;5004125;28;20100;-76
2022/04/09 12:17:57;;;;;;;9.02;1.73;;;;;;;;;;5006420;28;20088;-75
2022/04/09 12:20:33;;;;;;;11.10;2.65;;;;;;;;;;5006444;28;20084;-77
2022/04/09 12:23:00;;;;;;;;;;;;;;;;;;5006500;28;20080;-76
2022/04/09 12:25:38;;;;;;;3.50;1.70;;;;;;;;;;5006440;28;19967;-76
2022/04/09 12:28:06;;;;;;;6.82;1.60;;;;;;;;;;5007099;28;20103;-76
2022/04/09 12:30:41;;;;;;;2.35;1.40;;;;;;;;;;5009969;28;20069;-76
2022/04/09 12:33:10;;;;;;;3.70;1.33;;;;;;;;;;5010583;28;20541;-76
2022/04/09 12:35:38;;;;;;;3.35;1.48;;;;;;;;;;5009848;28;20092;-76
2022/04/09 12:38:05;;;;;;;6.20;1.58;;;;;;;;;;5009369;28;20099;-76
2022/04/09 12:40:32;;;;;;;3.97;1.65;;;;;;;;;;5010234;28;20448;-76
2022/04/09 12:42:59;;;;;;;4.85;1.17;;;;;;;;;;5010783;28;20034;-76
2022/04/09 12:45:27;;;;;;;2.78;1.10;;;;;;;;;;5011523;28;20556;-76
2022/04/09 12:47:55;;;;;;;3.35;1.40;;;;;;;;;;5012536;28;20093;-77
2022/04/09 12:50:25;;;;;;;4.82;1.23;;;;;;;;;;5011470;28;20093;-76
2022/04/09 12:52:54;;;;;;;4.28;1.30;;;;;;;;;;5012264;28;20041;-76
2022/04/09 12:55:21;;;;;;;4.38;1.67;;;;;;;;;;5011203;28;20344;-77
2022/04/09 12:57:48;;;;;;;5.97;1.73;;;;;;;;;;5011846;28;20125;-77
2022/04/09 13:00:16;;;;;;;5.18;1.33;;;;;;;;;;5007875;28;20474;-77
2022/04/09 13:02:44;;;;;;;4.70;1.40;;;;;;;;;;5010068;28;20121;-75
2022/04/09 13:05:10;;;;;;;3.03;1.20;;;;;;;;;;5010058;28;20521;-76
2022/04/09 13:07:37;;;;;;;7.28;1.45;;;;;;;;;;5006044;28;20108;-76
2022/04/09 13:10:06;;;;;;;3.88;1.30;;;;;;;;;;5010932;28;20142;-76
2022/04/09 13:12:36;;;;;;;3.97;1.83;;;;;;;;;;5010894;28;20073;-76
2022/04/09 13:15:03;;;;;;;5.20;1.30;;;;;;;;;;5009596;28;20305;-76
2022/04/09 13:17:35;;;;;;;5.32;1.27;;;;;;;;;;5019935;28;20115;-76
2022/04/09 13:20:03;;;;;;;3.00;1.35;;;;;;;;;;5010789;28;20150;-76
2022/04/09 13:22:31;;;;;;;3.85;1.40;;;;;;;;;;5010962;28;20053;-76
2022/04/09 13:24:57;;;;;;;4.65;1.35;;;;;;;;;;5009827;28;20427;-75
2022/04/09 13:27:26;;;;;;;5.25;1.55;;;;;;;;;;5009911;28;20133;-76
2022/04/09 13:29:52;;;;;;;2.92;1.50;;;;;;;;;;5009879;28;20065;-76
2022/04/09 13:32:19;;;;;;;2.70;1.00;;;;;;;;;;5009678;28;20136;-76
2022/04/09 13:34:46;;;;;;;3.50;1.20;;;;;;;;;;5009437;28;20473;-76
2022/04/09 13:37:13;;;;;;;4.70;1.35;;;;;;;;;;5010865;28;20058;-77
2022/04/09 13:39:39;;;;;;;2.45;1.20;;;;;;;;;;5011056;28;20152;-76
2022/04/09 13:42:09;;;;;;;3.33;1.20;;;;;;;;;;5010212;28;20068;-76
2022/04/09 13:44:38;;;;;;;3.45;1.25;;;;;;;;;;5014029;28;20145;-76
2022/04/09 13:47:06;;;;;;;3.45;1.45;;;;;;;;;;5011945;28;20034;-76
2022/04/09 13:49:33;;;;;;;3.25;1.17;;;;;;;;;;5016090;28;20041;-75
2022/04/09 13:51:59;;;;;;;3.88;1.27;;;;;;;;;;5013204;28;20462;-76
2022/04/09 13:54:26;;;;;;;4.20;1.17;;;;;;;;;;5010881;28;20077;-76
2022/04/09 13:56:53;;;;;;;3.90;1.33;;;;;;;;;;5011074;28;20069;-76
2022/04/09 13:59:19;;;;;;;5.72;1.17;;;;;;;;;;5010362;28;20084;-77
2022/04/09 14:01:47;;;;;;;3.80;1.15;;;;;;;;;;5008635;28;20126;-75
2022/04/09 14:04:14;;;;;;;3.00;1.00;;;;;;;;;;5008405;28;20144;-76
2022/04/09 14:06:40;;;;;;;4.63;1.45;;;;;;;;;;5008604;28;20069;-75
2022/04/09 14:09:07;;;;;;;3.03;1.02;;;;;;;;;;5007902;28;20050;-76
2022/04/09 14:11:35;;;;;;;3.15;1.10;;;;;;;;;;5009059;28;20049;-76
2022/04/09 14:14:02;;;;;;;3.70;1.25;;;;;;;;;;5009050;28;20065;-75
2022/04/09 14:16:29;;;;;;;3.15;1.20;;;;;;;;;;5005890;28;20041;-76
2022/04/09 14:18:57;;;;;;;3.65;1.27;;;;;;;;;;5008072;28;20077;-76
2022/04/09 14:21:26;;;;;;;3.97;1.08;;;;;;;;;;5008836;28;20042;-76
2022/04/09 14:23:52;;;;;;;4.18;1.10;;;;;;;;;;5008393;28;20049;-76
2022/04/09 14:26:19;;;;;;;2.78;0.85;;;;;;;;;;5009528;28;20352;-76
2022/04/09 14:28:45;;;;;;;4.70;1.30;;;;;;;;;;5008530;28;20712;-76
2022/04/09 14:31:12;;;;;;;5.03;1.65;;;;;;;;;;5008441;28;20069;-76
2022/04/09 14:33:39;;;;;;;2.80;1.00;;;;;;;;;;5008557;28;20134;-76
2022/04/09 14:36:08;;;;;;;4.82;1.15;;;;;;;;;;5007717;28;20057;-77
2022/04/09 14:38:34;;;;;;;2.15;1.17;;;;;;;;;;5005563;28;20085;-77
2022/04/09 14:41:03;;;;;;;1.90;0.90;;;;;;;;;;5008860;28;20077;-76
2022/04/09 14:43:30;;;;;;;3.83;1.10;;;;;;;;;;5005951;28;20433;-76
2022/04/09 14:45:56;;;;;;;3.50;1.00;;;;;;;;;;5008728;28;20041;-76
2022/04/09 14:48:23;;;;;;;5.35;1.23;;;;;;;;;;5006041;28;20074;-76